createdAt,value
2023-01-07T00:00:41.336Z,96.07
2023-01-07T00:03:16.400Z,96.14
2023-01-07T00:05:49.454Z,96.58
2023-01-07T00:08:22.234Z,96.22
2023-01-07T00:10:54.969Z,95.91
2023-01-07T00:13:27.891Z,96.71
2023-01-07T00:16:03.215Z,97.54
2023-01-07T00:18:36.814Z,97.34
2023-01-07T00:21:11.563Z,96.54
2023-01-07T00:23:45.692Z,96.39
2023-01-07T00:26:20.134Z,97.01
2023-01-07T00:28:54.742Z,97.21
2023-01-07T00:31:31.160Z,97.11
2023-01-07T00:34:10.005Z,97.97
2023-01-07T00:36:45.003Z,98.43
2023-01-07T00:39:20.404Z,98.82
2023-01-07T00:42:10.929Z,98.15
2023-01-07T00:44:50.638Z,97.65
2023-01-07T00:47:25.463Z,98.56
2023-01-07T00:49:58.289Z,99.18
2023-01-07T00:52:31.188Z,99.58
2023-01-07T00:55:05.207Z,100.00
2023-01-07T00:57:39.488Z,100.00
2023-01-07T01:00:15.430Z,99.83
2023-01-07T01:02:50.452Z,99.66
2023-01-07T01:05:23.398Z,99.61
2023-01-07T01:07:56.539Z,99.50
2023-01-07T01:10:29.314Z,99.72
2023-01-07T01:13:02.506Z,100.00
2023-01-07T01:15:35.250Z,99.60
2023-01-07T01:18:09.428Z,99.41
2023-01-07T01:20:42.908Z,99.06
2023-01-07T01:23:15.950Z,98.66
2023-01-07T01:25:48.724Z,98.59
2023-01-07T01:28:21.520Z,98.77
2023-01-07T01:30:55.989Z,99.47
2023-01-07T01:33:33.311Z,99.92
2023-01-07T01:36:08.023Z,99.93
2023-01-07T01:38:41.008Z,99.61
2023-01-07T01:41:16.712Z,100.00
2023-01-07T01:43:51.828Z,99.81
2023-01-07T01:46:31.965Z,100.00
2023-01-07T01:49:16.965Z,100.00
2023-01-07T01:51:55.807Z,100.00
2023-01-07T01:54:29.423Z,100.00
2023-01-07T01:57:06.900Z,100.00
2023-01-07T01:59:43.377Z,100.00
2023-01-07T02:02:26.490Z,100.00
2023-01-07T02:05:02.063Z,100.00
2023-01-07T02:07:35.084Z,100.00
2023-01-07T02:10:15.411Z,100.00
2023-01-07T02:13:01.552Z,100.00
2023-01-07T02:15:46.296Z,100.00
2023-01-07T02:18:46.474Z,100.00
2023-01-07T02:21:31.184Z,100.00
2023-01-07T02:24:37.527Z,100.00
2023-01-07T02:27:46.111Z,100.00
2023-01-07T02:30:41.468Z,100.00
2023-01-07T02:33:27.484Z,100.00
2023-01-07T02:36:14.472Z,100.00
2023-01-07T02:39:00.000Z,100.00
2023-01-07T02:41:44.510Z,100.00
2023-01-07T02:44:27.524Z,100.00
2023-01-07T02:47:05.062Z,100.00
2023-01-07T02:49:39.310Z,100.00
2023-01-07T02:52:19.339Z,100.00
2023-01-07T02:54:58.627Z,100.00
2023-01-07T02:58:00.935Z,100.00
2023-01-07T03:01:10.694Z,100.00
2023-01-07T03:03:59.313Z,100.00
2023-01-07T03:06:50.756Z,100.00
2023-01-07T03:09:33.179Z,100.00
2023-01-07T03:12:10.943Z,100.00
2023-01-07T03:14:49.689Z,100.00
2023-01-07T03:17:26.882Z,100.00
2023-01-07T03:20:02.380Z,100.00
2023-01-07T03:22:38.726Z,100.00
2023-01-07T03:25:14.379Z,100.00
2023-01-07T03:27:50.538Z,100.00
2023-01-07T03:30:25.918Z,100.00
2023-01-07T03:33:01.764Z,100.00
2023-01-07T03:35:37.923Z,100.00
2023-01-07T03:38:14.088Z,100.00
2023-01-07T03:40:47.127Z,100.00
2023-01-07T03:43:22.150Z,100.00
2023-01-07T03:45:56.337Z,100.00
2023-01-07T03:48:29.189Z,100.00
2023-01-07T03:51:02.333Z,100.00
2023-01-07T03:53:36.820Z,100.00
2023-01-07T03:56:09.634Z,100.00
2023-01-07T03:58:42.459Z,100.00
2023-01-07T04:01:15.678Z,100.00
2023-01-07T04:03:48.785Z,100.00
2023-01-07T04:06:23.198Z,100.00
2023-01-07T04:08:57.491Z,100.00
2023-01-07T04:11:30.953Z,100.00
2023-01-07T04:14:03.911Z,100.00
2023-01-07T04:16:38.006Z,100.00
2023-01-07T04:19:11.154Z,100.00
2023-01-07T04:21:44.017Z,100.00
2023-01-07T04:24:18.432Z,100.00
2023-01-07T04:26:51.883Z,100.00
2023-01-07T04:29:25.598Z,100.00
2023-01-07T04:31:58.712Z,100.00
2023-01-07T04:34:32.068Z,100.00
2023-01-07T04:37:05.073Z,100.00
2023-01-07T04:39:39.275Z,100.00
2023-01-07T04:42:12.707Z,100.00
2023-01-07T04:44:45.967Z,100.00
2023-01-07T04:47:18.845Z,100.00
2023-01-07T04:49:51.970Z,100.00
2023-01-07T04:52:25.143Z,100.00
2023-01-07T04:55:00.464Z,100.00
2023-01-07T04:57:33.907Z,100.00
2023-01-07T05:00:09.985Z,100.00
2023-01-07T05:02:43.238Z,100.00
2023-01-07T05:05:17.658Z,100.00
2023-01-07T05:07:51.242Z,100.00
2023-01-07T05:10:26.640Z,100.00
2023-01-07T05:12:59.902Z,100.00
2023-01-07T05:15:33.348Z,100.00
2023-01-07T05:18:07.290Z,100.00
2023-01-07T05:20:40.811Z,100.00
2023-01-07T05:23:13.913Z,100.00
2023-01-07T05:25:48.099Z,100.00
2023-01-07T05:28:21.047Z,100.00
2023-01-07T05:30:54.057Z,100.00
2023-01-07T05:33:27.438Z,100.00
2023-01-07T05:36:00.277Z,100.00
2023-01-07T05:38:33.749Z,100.00
2023-01-07T05:41:08.765Z,100.00
2023-01-07T05:43:42.375Z,100.00
2023-01-07T05:46:15.143Z,100.00
2023-01-07T05:48:47.961Z,100.00
2023-01-07T05:51:20.993Z,100.00
2023-01-07T05:53:53.781Z,100.00
2023-01-07T05:56:27.985Z,100.00
2023-01-07T05:59:00.844Z,100.00
2023-01-07T06:01:33.863Z,100.00
2023-01-07T06:04:08.339Z,100.00
2023-01-07T06:06:41.480Z,100.00
2023-01-07T06:09:14.493Z,100.00
2023-01-07T06:11:49.180Z,100.00
2023-01-07T06:14:21.981Z,100.00
2023-01-07T06:16:54.781Z,100.00
2023-01-07T06:19:27.764Z,100.00
2023-01-07T06:22:00.929Z,100.00
2023-01-07T06:24:33.736Z,100.00
2023-01-07T06:27:07.896Z,100.00
2023-01-07T06:29:40.699Z,100.00
2023-01-07T06:32:13.578Z,100.00
2023-01-07T06:34:46.367Z,100.00
2023-01-07T06:37:19.178Z,100.00
2023-01-07T06:39:52.051Z,100.00
2023-01-07T06:42:26.362Z,100.00
2023-01-07T06:44:59.544Z,100.00
2023-01-07T06:47:32.407Z,100.00
2023-01-07T06:50:07.867Z,99.91
2023-01-07T06:52:41.735Z,99.93
2023-01-07T06:55:14.645Z,99.15
2023-01-07T06:57:49.247Z,99.29
2023-01-07T07:00:25.113Z,99.30
2023-01-07T07:02:57.984Z,99.21
2023-01-07T07:05:30.859Z,99.04
2023-01-07T07:08:05.371Z,99.57
2023-01-07T07:10:38.249Z,99.15
2023-01-07T07:13:12.608Z,98.78
2023-01-07T07:15:45.688Z,98.75
2023-01-07T07:18:18.991Z,99.38
2023-01-07T07:20:51.744Z,99.98
2023-01-07T07:23:24.512Z,100.00
2023-01-07T07:25:57.418Z,100.00
2023-01-07T07:28:31.508Z,100.00
2023-01-07T07:31:04.777Z,100.00
2023-01-07T07:33:37.695Z,100.00
2023-01-07T07:36:10.737Z,100.00
2023-01-07T07:38:43.571Z,100.00
2023-01-07T07:41:16.413Z,100.00
2023-01-07T07:43:50.751Z,100.00
2023-01-07T07:46:23.566Z,100.00
2023-01-07T07:48:56.389Z,100.00
2023-01-07T07:51:29.860Z,100.00
2023-01-07T07:54:02.714Z,100.00
2023-01-07T07:56:35.607Z,99.57
2023-01-07T07:59:09.828Z,97.70
2023-01-07T08:01:42.810Z,98.10
2023-01-07T08:04:15.685Z,97.85
2023-01-07T08:06:48.471Z,97.70
2023-01-07T08:09:21.289Z,96.63
2023-01-07T08:11:54.225Z,96.98
2023-01-07T08:14:28.340Z,96.69
2023-01-07T08:17:01.364Z,96.53
2023-01-07T08:19:34.156Z,98.25
2023-01-07T08:22:06.963Z,97.37
2023-01-07T08:24:39.750Z,98.33
2023-01-07T08:27:12.613Z,98.07
2023-01-07T08:29:47.051Z,98.04
2023-01-07T08:32:20.019Z,99.26
2023-01-07T08:34:52.803Z,99.53
2023-01-07T08:37:26.200Z,99.16
2023-01-07T08:39:59.259Z,99.21
2023-01-07T08:42:32.079Z,98.21
2023-01-07T08:45:09.295Z,97.53
2023-01-07T08:47:42.098Z,99.15
2023-01-07T08:50:14.905Z,98.92
2023-01-07T08:52:47.966Z,99.15
2023-01-07T08:55:21.762Z,99.94
2023-01-07T08:57:54.596Z,100.00
2023-01-07T09:00:28.970Z,100.00
2023-01-07T09:03:03.761Z,100.00
2023-01-07T09:05:37.040Z,100.00
2023-01-07T09:08:09.943Z,100.00
2023-01-07T09:10:42.769Z,100.00
2023-01-07T09:13:15.571Z,100.00
2023-01-07T09:15:50.015Z,100.00
2023-01-07T09:18:22.976Z,100.00
2023-01-07T09:20:55.892Z,100.00
2023-01-07T09:23:28.815Z,100.00
2023-01-07T09:26:01.533Z,100.00
2023-01-07T09:28:34.366Z,100.00
2023-01-07T09:31:08.772Z,100.00
2023-01-07T09:33:41.814Z,100.00
2023-01-07T09:36:14.849Z,100.00
2023-01-07T09:38:47.653Z,100.00
2023-01-07T09:41:32.926Z,100.00
2023-01-07T09:44:16.793Z,100.00
2023-01-07T09:46:52.333Z,100.00
2023-01-07T09:49:29.158Z,100.00
2023-01-07T09:52:09.496Z,100.00
2023-01-07T09:54:42.863Z,100.00
2023-01-07T09:57:18.411Z,100.00
2023-01-07T09:59:51.289Z,100.00
2023-01-07T10:02:37.817Z,100.00
2023-01-07T10:05:23.878Z,99.61
2023-01-07T10:08:29.730Z,99.26
2023-01-07T10:11:13.058Z,97.91
2023-01-07T10:13:59.523Z,97.52
2023-01-07T10:16:44.591Z,97.04
2023-01-07T10:19:25.386Z,96.71
2023-01-07T10:22:03.550Z,96.97
2023-01-07T10:24:42.417Z,97.30
2023-01-07T10:27:19.832Z,96.92
2023-01-07T10:29:56.198Z,96.57
2023-01-07T10:32:32.787Z,95.91
2023-01-07T10:35:14.939Z,95.52
2023-01-07T10:37:47.908Z,95.81
2023-01-07T10:40:32.945Z,96.01
2023-01-07T10:43:18.017Z,95.79
2023-01-07T10:46:11.139Z,95.16
2023-01-07T10:49:05.548Z,95.00
2023-01-07T10:51:51.921Z,94.71
2023-01-07T10:54:40.089Z,94.03
2023-01-07T10:57:19.381Z,94.38
2023-01-07T10:59:55.177Z,93.40
2023-01-07T11:02:28.434Z,92.85
2023-01-07T11:05:01.548Z,93.18
2023-01-07T11:07:44.811Z,92.82
2023-01-07T11:10:20.849Z,90.94
2023-01-07T11:12:57.395Z,90.98
2023-01-07T11:15:35.353Z,90.73
2023-01-07T11:18:14.397Z,88.70
2023-01-07T11:20:50.298Z,87.90
2023-01-07T11:23:31.826Z,87.00
2023-01-07T11:26:14.969Z,86.48
2023-01-07T11:28:54.145Z,86.15
2023-01-07T11:31:47.298Z,85.87
2023-01-07T11:34:24.728Z,85.46
2023-01-07T11:36:57.672Z,86.08
2023-01-07T11:39:33.205Z,84.87
2023-01-07T11:42:38.191Z,83.89
2023-01-07T11:45:16.362Z,84.61
2023-01-07T11:47:59.110Z,84.96
2023-01-07T11:50:36.956Z,84.25
2023-01-07T11:53:24.105Z,84.37
2023-01-07T11:56:00.785Z,83.68
2023-01-07T11:58:36.150Z,83.67
2023-01-07T12:01:16.485Z,83.19
2023-01-07T12:04:13.043Z,84.14
2023-01-07T12:06:48.515Z,83.53
2023-01-07T12:09:37.405Z,83.90
2023-01-07T12:12:36.861Z,83.94
2023-01-07T12:15:20.043Z,83.55
2023-01-07T12:18:09.481Z,84.38
2023-01-07T12:21:16.425Z,83.46
2023-01-07T12:24:01.578Z,83.43
2023-01-07T12:26:45.322Z,83.11
2023-01-07T12:29:36.303Z,81.99
2023-01-07T12:32:22.160Z,83.34
2023-01-07T12:35:14.185Z,82.83
2023-01-07T12:37:53.018Z,82.84
2023-01-07T12:40:34.103Z,82.14
2023-01-07T12:43:25.752Z,82.03
2023-01-07T12:46:02.056Z,81.85
2023-01-07T12:48:42.239Z,82.45
2023-01-07T12:51:20.889Z,82.04
2023-01-07T12:54:01.172Z,82.33
2023-01-07T12:56:38.638Z,81.39
2023-01-07T12:59:46.230Z,82.41
2023-01-07T13:02:23.427Z,82.49
2023-01-07T13:05:05.690Z,82.31
2023-01-07T13:07:47.032Z,81.74
2023-01-07T13:10:26.277Z,80.72
2023-01-07T13:13:03.661Z,81.15
2023-01-07T13:15:42.267Z,80.67
2023-01-07T13:18:18.492Z,80.71
2023-01-07T13:21:00.998Z,81.03
2023-01-07T13:23:52.908Z,81.43
2023-01-07T13:26:35.243Z,80.45
2023-01-07T13:29:21.261Z,81.58
2023-01-07T13:32:19.436Z,81.31
2023-01-07T13:35:20.327Z,81.39
2023-01-07T13:38:07.784Z,81.66
2023-01-07T13:41:09.828Z,81.92
2023-01-07T13:43:59.239Z,82.02
2023-01-07T13:46:36.288Z,82.08
2023-01-07T13:49:24.891Z,82.16
2023-01-07T13:52:15.013Z,82.30
2023-01-07T13:55:24.032Z,82.76
2023-01-07T13:57:58.415Z,83.02
2023-01-07T14:00:57.185Z,83.44
2023-01-07T14:03:40.536Z,83.96
2023-01-07T14:06:38.816Z,84.11
2023-01-07T14:09:19.686Z,84.45
2023-01-07T14:12:30.132Z,84.68
2023-01-07T14:15:35.946Z,84.40
2023-01-07T14:18:45.311Z,83.85
2023-01-07T14:21:26.959Z,83.74
2023-01-07T14:24:28.291Z,83.43
2023-01-07T14:27:12.179Z,83.21
2023-01-07T14:29:48.276Z,82.86
2023-01-07T14:32:28.084Z,83.38
2023-01-07T14:35:07.923Z,82.44
2023-01-07T14:37:45.142Z,82.74
2023-01-07T14:40:52.049Z,82.87
2023-01-07T14:44:00.114Z,83.00
2023-01-07T14:46:50.477Z,82.88
2023-01-07T14:50:11.229Z,81.95
2023-01-07T14:52:59.001Z,82.19
2023-01-07T14:56:01.507Z,81.15
2023-01-07T14:58:45.079Z,81.68
2023-01-07T15:01:35.447Z,82.39
2023-01-07T15:04:45.797Z,82.54
2023-01-07T15:07:22.802Z,84.54
2023-01-07T15:10:18.520Z,84.82
2023-01-07T15:13:15.379Z,85.60
2023-01-07T15:16:06.277Z,86.85
2023-01-07T15:18:48.575Z,87.21
2023-01-07T15:21:31.048Z,87.52
2023-01-07T15:24:13.670Z,88.04
2023-01-07T15:26:54.469Z,87.55
2023-01-07T15:29:33.086Z,87.02
2023-01-07T15:32:14.546Z,87.03
2023-01-07T15:34:48.056Z,86.28
2023-01-07T15:37:21.455Z,86.71
2023-01-07T15:39:57.020Z,87.39
2023-01-07T15:42:32.932Z,88.09
2023-01-07T15:45:06.617Z,88.08
2023-01-07T15:47:41.764Z,87.88
2023-01-07T15:50:28.315Z,88.10
2023-01-07T15:53:03.857Z,89.04
2023-01-07T15:55:39.898Z,90.12
2023-01-07T15:58:18.629Z,90.53
2023-01-07T16:00:52.648Z,91.62
2023-01-07T16:03:26.215Z,93.43
2023-01-07T16:06:01.770Z,94.30
2023-01-07T16:08:35.039Z,95.71
2023-01-07T16:11:10.184Z,96.41
2023-01-07T16:13:56.096Z,96.81
2023-01-07T16:16:32.093Z,97.72
2023-01-07T16:19:05.205Z,98.25
2023-01-07T16:21:41.264Z,98.51
2023-01-07T16:24:16.742Z,98.66
2023-01-07T16:26:52.371Z,97.62
2023-01-07T16:29:29.497Z,97.73
2023-01-07T16:32:02.803Z,95.24
2023-01-07T16:34:58.637Z,94.76
2023-01-07T16:37:32.047Z,96.35
2023-01-07T16:40:05.900Z,96.25
2023-01-07T16:42:41.329Z,95.23
2023-01-07T16:45:25.632Z,95.43
2023-01-07T16:48:03.790Z,95.86
2023-01-07T16:50:40.020Z,98.38
2023-01-07T16:53:25.005Z,99.83
2023-01-07T16:56:21.842Z,100.00
2023-01-07T16:58:57.055Z,100.00
2023-01-07T17:01:34.358Z,100.00
2023-01-07T17:04:14.788Z,100.00
2023-01-07T17:06:47.700Z,100.00
2023-01-07T17:09:24.046Z,100.00
2023-01-07T17:11:57.150Z,100.00
2023-01-07T17:14:50.355Z,100.00
2023-01-07T17:17:29.760Z,100.00
2023-01-07T17:20:17.376Z,100.00
2023-01-07T17:22:50.864Z,100.00
2023-01-07T17:25:26.051Z,100.00
2023-01-07T17:28:01.930Z,100.00
2023-01-07T17:30:36.469Z,100.00
2023-01-07T17:33:17.040Z,100.00
2023-01-07T17:35:50.004Z,100.00
2023-01-07T17:38:22.787Z,100.00
2023-01-07T17:40:55.939Z,100.00
2023-01-07T17:43:33.855Z,100.00
2023-01-07T17:46:09.654Z,100.00
2023-01-07T17:48:43.881Z,100.00
2023-01-07T17:51:16.741Z,100.00
2023-01-07T17:53:52.239Z,100.00
2023-01-07T17:56:25.378Z,100.00
2023-01-07T17:58:58.172Z,100.00
2023-01-07T18:01:32.552Z,100.00
2023-01-07T18:04:06.991Z,100.00
2023-01-07T18:06:40.894Z,100.00
2023-01-07T18:09:13.796Z,100.00
2023-01-07T18:12:05.121Z,100.00
2023-01-07T18:14:37.945Z,100.00
2023-01-07T18:17:10.668Z,100.00
2023-01-07T18:19:44.825Z,100.00
2023-01-07T18:22:17.666Z,100.00
2023-01-07T18:24:50.818Z,100.00
2023-01-07T18:27:23.754Z,100.00
2023-01-07T18:29:56.789Z,100.00
2023-01-07T18:32:29.605Z,100.00
2023-01-07T18:35:03.754Z,100.00
2023-01-07T18:37:36.573Z,100.00
2023-01-07T18:40:10.635Z,100.00
2023-01-07T18:42:43.615Z,100.00
2023-01-07T18:45:16.635Z,100.00
2023-01-07T18:47:49.907Z,100.00
2023-01-07T18:50:24.656Z,100.00
2023-01-07T18:52:58.995Z,100.00
2023-01-07T18:55:31.792Z,100.00
2023-01-07T18:58:04.711Z,100.00
2023-01-07T19:00:37.726Z,100.00
2023-01-07T19:03:11.413Z,100.00
2023-01-07T19:05:45.698Z,100.00
2023-01-07T19:08:18.536Z,100.00
2023-01-07T19:10:51.319Z,100.00
2023-01-07T19:13:24.124Z,100.00
2023-01-07T19:15:57.045Z,100.00
2023-01-07T19:18:29.874Z,100.00
2023-01-07T19:21:04.577Z,100.00
2023-01-07T19:23:37.516Z,100.00
2023-01-07T19:26:12.197Z,100.00
2023-01-07T19:28:44.999Z,100.00
2023-01-07T19:31:17.806Z,100.00
2023-01-07T19:33:50.699Z,100.00
2023-01-07T19:36:25.502Z,100.00
2023-01-07T19:38:58.476Z,100.00
2023-01-07T19:41:32.930Z,100.00
2023-01-07T19:44:06.738Z,100.00
2023-01-07T19:46:40.002Z,100.00
2023-01-07T19:49:13.502Z,100.00
2023-01-07T19:51:47.684Z,100.00
2023-01-07T19:54:20.455Z,100.00
2023-01-07T19:56:54.526Z,100.00
2023-01-07T19:59:27.332Z,100.00
2023-01-07T20:02:00.252Z,100.00
2023-01-07T20:04:33.193Z,100.00
2023-01-07T20:07:07.380Z,100.00
2023-01-07T20:09:40.658Z,100.00
2023-01-07T20:12:13.500Z,100.00
2023-01-07T20:14:46.426Z,100.00
2023-01-07T20:17:19.192Z,100.00
2023-01-07T20:19:52.052Z,100.00
2023-01-07T20:22:26.762Z,100.00
2023-01-07T20:24:59.737Z,100.00
2023-01-07T20:27:32.562Z,100.00
2023-01-07T20:30:06.670Z,100.00
2023-01-07T20:32:39.411Z,100.00
2023-01-07T20:35:12.212Z,100.00
2023-01-07T20:37:46.641Z,100.00
2023-01-07T20:40:19.438Z,100.00
2023-01-07T20:42:52.344Z,100.00
2023-01-07T20:45:25.305Z,100.00
2023-01-07T20:47:59.343Z,100.00
2023-01-07T20:50:35.587Z,100.00
2023-01-07T20:53:10.650Z,100.00
2023-01-07T20:55:43.463Z,100.00
2023-01-07T20:58:16.305Z,100.00
2023-01-07T21:00:49.501Z,100.00
2023-01-07T21:03:22.350Z,100.00
2023-01-07T21:05:56.903Z,100.00
2023-01-07T21:08:31.205Z,100.00
2023-01-07T21:11:04.010Z,100.00
2023-01-07T21:13:36.971Z,100.00
2023-01-07T21:16:10.527Z,100.00
2023-01-07T21:18:43.601Z,100.00
2023-01-07T21:21:19.118Z,100.00
2023-01-07T21:23:53.986Z,100.00
2023-01-07T21:26:26.770Z,100.00
2023-01-07T21:28:59.544Z,100.00
2023-01-07T21:31:32.384Z,100.00
2023-01-07T21:34:05.318Z,100.00
2023-01-07T21:36:38.281Z,100.00
2023-01-07T21:39:13.393Z,100.00
2023-01-07T21:41:46.253Z,100.00
2023-01-07T21:44:19.488Z,100.00
2023-01-07T21:46:52.327Z,100.00
2023-01-07T21:49:25.170Z,100.00
2023-01-07T21:51:57.999Z,100.00
2023-01-07T21:54:32.182Z,100.00
2023-01-07T21:57:05.041Z,100.00
2023-01-07T21:59:37.846Z,100.00
2023-01-07T22:02:11.128Z,100.00
2023-01-07T22:04:45.968Z,100.00
2023-01-07T22:07:20.733Z,100.00
2023-01-07T22:09:55.072Z,100.00
2023-01-07T22:12:27.913Z,100.00
2023-01-07T22:15:00.821Z,100.00
2023-01-07T22:17:33.594Z,100.00
2023-01-07T22:20:07.551Z,100.00
2023-01-07T22:22:40.376Z,100.00
2023-01-07T22:25:14.640Z,100.00
2023-01-07T22:27:47.585Z,100.00
2023-01-07T22:30:22.907Z,100.00
2023-01-07T22:32:55.742Z,100.00
2023-01-07T22:35:30.096Z,100.00
2023-01-07T22:38:04.248Z,100.00
2023-01-07T22:40:39.330Z,100.00
2023-01-07T22:43:15.933Z,100.00
2023-01-07T22:45:53.957Z,100.00
2023-01-07T22:48:30.320Z,100.00
2023-01-07T22:51:07.132Z,100.00
2023-01-07T22:53:40.106Z,100.00
2023-01-07T22:56:15.052Z,100.00
2023-01-07T22:58:47.913Z,100.00
2023-01-07T23:01:21.077Z,100.00
2023-01-07T23:03:54.008Z,100.00
2023-01-07T23:06:27.005Z,100.00
2023-01-07T23:08:59.759Z,100.00
2023-01-07T23:11:48.963Z,100.00
2023-01-07T23:14:23.948Z,100.00
2023-01-07T23:16:57.331Z,100.00
2023-01-07T23:19:32.093Z,100.00
2023-01-07T23:22:05.593Z,100.00
2023-01-07T23:24:38.403Z,100.00
2023-01-07T23:27:14.008Z,100.00
2023-01-07T23:29:46.806Z,100.00
2023-01-07T23:32:19.626Z,99.82
2023-01-07T23:34:52.453Z,99.13
2023-01-07T23:37:25.241Z,100.00
2023-01-07T23:39:58.063Z,100.00
2023-01-07T23:42:32.449Z,100.00
2023-01-07T23:45:07.335Z,100.00
2023-01-07T23:47:40.154Z,100.00
2023-01-07T23:50:13.632Z,100.00
2023-01-07T23:52:46.441Z,100.00
2023-01-07T23:55:19.688Z,100.00
2023-01-07T23:57:53.850Z,100.00
